Terminal Aerodrome Forecast
Issued by NWS Quad Cities IA IL

Home | Current Version | Previous Version | Text Only | Print | Product List | Glossary On
Versions: 1 2 3 4 5 6 7 8 9 10 11 12 13 14 15 16 17 18 19 20 21 22 23 24
000
FTUS43 KDVN 231100 RRA
TAFDBQ
TAF
KDBQ 231130Z 2312/2412 19014KT 2SM BR OVC005 WS020/23040KT
      TEMPO 2312/2315 1SM BR OVC002
     FM231500 18014KT 3SM -RA BR OVC005
     FM231900 14010KT 1SM RA BR OVC006
     FM240000 11006KT 1/2SM -RA FG OVC004
     FM240600 32015KT 1SM -DZ BR OVC004
     FM241000 33017G25KT 1 1/2SM -RASN BR OVC007=

USA.gov is the U.S. government's official web portal to all federal, state and local government web resources and services.